Terminal Aerodrome Forecast
Issued by NWS

Home | Current Version | Previous Version | Graphics & Text | Print | Product List | Glossary On
Versions: 1 2 3 4 5 6 7 8 9 10 11 12 13 14 15 16 17 18 19 20 21 22
000
FTUS43 KABR 221700
TAFATY
TAF
KATY 221738Z 2218/2318 02014KT P6SM SCT050 SCT200
     FM222200 02011KT P6SM SCT050 SCT200
     FM230500 06005KT P6SM SKC=

USA.gov is the U.S. government's official web portal to all federal, state and local government web resources and services.